createdAt,value
2018-08-28T00:02:13.829Z,5.95
2018-08-28T00:04:44.483Z,4.08
2018-08-28T00:07:15.217Z,6.87
2018-08-28T00:09:46.044Z,6.47
2018-08-28T00:12:16.758Z,8.55
2018-08-28T00:14:47.550Z,7.10
2018-08-28T00:17:18.034Z,10.25
2018-08-28T00:19:48.497Z,11.20
2018-08-28T00:22:19.200Z,8.90
2018-08-28T00:24:49.957Z,10.63
2018-08-28T00:27:20.465Z,7.53
2018-08-28T00:29:51.004Z,9.50
2018-08-28T00:32:21.726Z,8.90
2018-08-28T00:34:52.541Z,10.48
2018-08-28T00:37:23.096Z,8.43
2018-08-28T00:39:53.849Z,8.20
2018-08-28T00:42:24.829Z,8.03
2018-08-28T00:44:55.501Z,7.75
2018-08-28T00:47:25.966Z,7.00
2018-08-28T00:49:56.684Z,7.25
2018-08-28T00:52:27.450Z,7.72
2018-08-28T00:54:58.350Z,8.95
2018-08-28T00:57:28.906Z,7.35
2018-08-28T00:59:59.571Z,8.63
2018-08-28T01:02:30.090Z,11.28
2018-08-28T01:05:00.740Z,7.47
2018-08-28T01:07:31.484Z,10.58
2018-08-28T01:10:02.297Z,7.25
2018-08-28T01:12:33.076Z,7.95
2018-08-28T01:15:03.546Z,6.12
2018-08-28T01:17:34.260Z,6.90
2018-08-28T01:20:05.552Z,8.98
2018-08-28T01:22:36.226Z,8.20
2018-08-28T01:25:07.917Z,9.05
2018-08-28T01:27:38.674Z,8.58
2018-08-28T01:30:09.389Z,9.08
2018-08-28T01:32:40.156Z,7.25
2018-08-28T01:35:10.861Z,9.25
2018-08-28T01:37:41.577Z,8.70
2018-08-28T01:40:12.421Z,10.23
2018-08-28T01:42:43.677Z,9.40
2018-08-28T01:45:14.361Z,12.03
2018-08-28T01:47:44.837Z,10.65
2018-08-28T01:50:15.922Z,11.15
2018-08-28T01:52:46.625Z,9.38
2018-08-28T01:55:17.368Z,10.90
2018-08-28T01:57:48.045Z,10.40
2018-08-28T02:00:18.786Z,9.23
2018-08-28T02:02:49.509Z,9.85
2018-08-28T02:05:20.220Z,7.12
2018-08-28T02:07:50.806Z,10.20
2018-08-28T02:10:21.719Z,11.60
2018-08-28T02:12:52.269Z,7.30
2018-08-28T02:15:22.742Z,8.80
2018-08-28T02:17:53.497Z,15.78
2018-08-28T02:20:24.507Z,9.08
2018-08-28T02:22:55.355Z,10.32
2018-08-28T02:25:26.110Z,8.15
2018-08-28T02:27:57.020Z,7.00
2018-08-28T02:30:28.083Z,12.13
2018-08-28T02:32:58.549Z,8.23
2018-08-28T02:35:29.239Z,6.25
2018-08-28T02:38:00.661Z,8.80
2018-08-28T02:40:31.449Z,7.97
2018-08-28T02:43:02.601Z,8.05
2018-08-28T02:45:33.253Z,7.33
2018-08-28T02:48:03.927Z,7.00
2018-08-28T02:50:34.888Z,8.53
2018-08-28T02:53:05.622Z,10.40
2018-08-28T02:55:36.398Z,8.30
2018-08-28T02:58:07.280Z,7.78
2018-08-28T03:00:37.950Z,10.50
2018-08-28T03:03:09.717Z,9.80
2018-08-28T03:05:40.374Z,9.50
2018-08-28T03:08:11.182Z,13.72
2018-08-28T03:10:41.870Z,10.03
2018-08-28T03:13:12.873Z,9.03
2018-08-28T03:15:43.685Z,10.18
2018-08-28T03:18:14.645Z,10.58
2018-08-28T03:20:45.338Z,12.33
2018-08-28T03:23:16.285Z,9.08
2018-08-28T03:25:46.962Z,9.98
2018-08-28T06:13:58.337Z,9.20
2018-08-28T06:16:29.407Z,15.15
2018-08-28T06:18:59.823Z,9.88
2018-08-28T06:21:30.774Z,15.00
2018-08-28T06:24:01.451Z,15.45
2018-08-28T06:26:33.210Z,12.15
2018-08-28T06:29:04.686Z,12.85
2018-08-28T06:31:35.342Z,13.20
2018-08-28T06:34:06.788Z,13.93
2018-08-28T06:36:37.722Z,13.03
2018-08-28T06:39:09.556Z,12.40
2018-08-28T06:41:40.411Z,14.95
2018-08-28T06:44:11.494Z,8.63
2018-08-28T06:46:42.613Z,12.43
2018-08-28T06:49:16.128Z,12.13
2018-08-28T06:51:46.846Z,12.13
2018-08-28T06:54:17.961Z,9.00
2018-08-28T06:56:48.510Z,11.85
2018-08-28T06:59:18.877Z,8.75
2018-08-28T07:01:49.438Z,11.22
2018-08-28T07:04:20.250Z,16.10
2018-08-28T07:06:50.929Z,13.50
2018-08-28T07:09:21.444Z,12.15
2018-08-28T07:11:51.828Z,7.58
2018-08-28T07:14:22.510Z,12.28
2018-08-28T07:16:53.197Z,12.10
2018-08-28T07:19:23.988Z,16.37
2018-08-28T07:21:55.065Z,11.08
2018-08-28T07:24:25.890Z,12.80
2018-08-28T07:26:57.067Z,14.05
2018-08-28T07:29:27.466Z,10.05
2018-08-28T07:31:58.041Z,13.22
2018-08-28T07:34:28.537Z,10.63
2018-08-28T07:36:59.257Z,10.43
2018-08-28T07:39:29.766Z,14.50
2018-08-28T07:42:00.441Z,11.20
2018-08-28T07:44:31.216Z,16.70
2018-08-28T07:47:01.436Z,10.23
2018-08-28T07:49:31.802Z,11.40
2018-08-28T07:52:02.516Z,10.55
2018-08-28T07:54:33.208Z,12.37
2018-08-28T07:57:03.894Z,9.60
2018-08-28T07:59:34.667Z,8.13
2018-08-28T08:02:06.031Z,15.08
2018-08-28T08:04:37.212Z,12.88
2018-08-28T08:07:07.972Z,10.10
2018-08-28T08:09:38.646Z,10.85
2018-08-28T08:12:09.492Z,13.45
2018-08-28T08:14:40.460Z,10.48
2018-08-28T08:17:10.704Z,10.85
2018-08-28T08:19:40.928Z,12.43
2018-08-28T08:22:11.461Z,13.85
2018-08-28T08:24:42.793Z,9.68
2018-08-28T08:27:13.616Z,11.38
2018-08-28T08:29:44.441Z,15.25
2018-08-28T08:32:15.123Z,8.65
2018-08-28T08:34:45.622Z,9.55
2018-08-28T08:37:16.102Z,7.12
2018-08-28T08:39:46.761Z,8.73
2018-08-28T08:42:17.238Z,9.63
2018-08-28T08:44:47.618Z,8.58
2018-08-28T08:47:19.447Z,8.73
2018-08-28T08:49:50.341Z,7.40
2018-08-28T08:52:21.128Z,8.70
2018-08-28T08:54:51.774Z,7.70
2018-08-28T08:57:22.409Z,7.83
2018-08-28T08:59:53.361Z,7.55
2018-08-28T09:02:23.861Z,8.93
2018-08-28T09:04:54.831Z,9.28
2018-08-28T09:07:25.342Z,8.08
2018-08-28T09:09:56.150Z,9.38
2018-08-28T09:12:26.664Z,8.30
2018-08-28T09:14:57.508Z,8.23
2018-08-28T09:17:28.162Z,8.65
2018-08-28T09:19:58.567Z,7.12
2018-08-28T09:22:28.684Z,8.80
2018-08-28T09:24:59.087Z,8.50
2018-08-28T09:27:29.359Z,10.33
2018-08-28T09:30:00.133Z,8.73
2018-08-28T09:32:30.551Z,8.00
2018-08-28T09:35:01.050Z,10.80
2018-08-28T09:37:31.893Z,8.00
2018-08-28T09:40:02.719Z,9.83
2018-08-28T09:42:33.465Z,12.30
2018-08-28T09:45:04.250Z,8.38
2018-08-28T09:47:34.983Z,8.78
2018-08-28T09:50:06.391Z,8.83
2018-08-28T09:52:36.629Z,10.18
2018-08-28T09:55:07.291Z,8.63
2018-08-28T09:57:38.249Z,8.78
2018-08-28T10:00:14.151Z,9.88
2018-08-28T10:02:44.792Z,8.60
2018-08-28T10:05:15.249Z,8.20
2018-08-28T10:07:45.626Z,7.78
2018-08-28T10:10:16.279Z,9.95
2018-08-28T10:12:46.809Z,7.42
2018-08-28T10:15:17.707Z,11.48
2018-08-28T10:17:48.507Z,7.80
2018-08-28T10:20:18.695Z,9.98
2018-08-28T10:22:49.395Z,7.30
2018-08-28T10:25:20.295Z,7.80
2018-08-28T10:27:50.999Z,6.90
2018-08-28T10:30:21.741Z,10.05
2018-08-28T10:32:52.401Z,9.88
2018-08-28T10:35:22.762Z,11.53
2018-08-28T10:37:53.786Z,7.62
2018-08-28T10:40:24.480Z,8.35
2018-08-28T10:42:55.252Z,8.90
2018-08-28T10:45:25.752Z,8.33
2018-08-28T10:47:56.612Z,11.70
2018-08-28T10:50:27.340Z,10.32
2018-08-28T10:52:57.993Z,11.43
2018-08-28T10:55:28.845Z,8.85
2018-08-28T10:57:59.392Z,10.30
2018-08-28T11:00:30.480Z,10.55
2018-08-28T11:03:01.302Z,8.95
2018-08-28T11:05:32.086Z,10.72
2018-08-28T11:08:03.225Z,8.55
2018-08-28T11:10:34.195Z,10.25
2018-08-28T11:13:04.834Z,9.88
2018-08-28T11:15:35.418Z,12.65
2018-08-28T11:18:06.414Z,8.75
2018-08-28T11:20:38.260Z,9.58
2018-08-28T11:23:09.012Z,8.68
2018-08-28T11:25:39.536Z,12.10
2018-08-28T11:28:09.860Z,10.82
2018-08-28T11:30:40.603Z,8.25
2018-08-28T11:33:11.457Z,8.90
2018-08-28T11:35:42.262Z,9.70
2018-08-28T11:38:14.243Z,10.75
2018-08-28T11:40:45.091Z,10.38
2018-08-28T11:43:15.849Z,10.03
2018-08-28T11:45:46.800Z,10.65
2018-08-28T11:48:17.437Z,10.08
2018-08-28T11:50:48.558Z,9.83
2018-08-28T11:53:19.533Z,13.20
2018-08-28T11:55:50.336Z,10.85
2018-08-28T11:58:21.369Z,10.38
2018-08-28T12:00:51.930Z,12.55
2018-08-28T12:03:23.289Z,12.13
2018-08-28T12:05:54.255Z,13.88
2018-08-28T12:08:24.946Z,12.43
2018-08-28T12:10:55.302Z,11.68
2018-08-28T12:13:26.056Z,12.98
2018-08-28T12:15:56.944Z,11.73
2018-08-28T12:18:27.511Z,11.20
2018-08-28T12:20:58.169Z,12.60
2018-08-28T12:23:29.190Z,12.80
2018-08-28T12:26:00.085Z,13.28
2018-08-28T12:28:30.926Z,11.75
2018-08-28T12:31:01.709Z,12.98
2018-08-28T12:33:33.670Z,13.68
2018-08-28T12:36:04.788Z,11.73
2018-08-28T12:38:35.352Z,17.30
2018-08-28T12:41:05.873Z,15.60
2018-08-28T12:43:36.603Z,12.58
2018-08-28T12:46:07.234Z,14.85
2018-08-28T12:48:37.952Z,14.83
2018-08-28T12:51:09.354Z,13.32
2018-08-28T12:53:39.938Z,13.15
2018-08-28T12:56:11.019Z,11.55
2018-08-28T12:58:41.562Z,9.93
2018-08-28T13:01:12.187Z,11.03
2018-08-28T13:03:43.161Z,11.48
2018-08-28T13:06:13.803Z,14.87
2018-08-28T13:08:45.033Z,13.03
2018-08-28T13:11:15.741Z,9.60
2018-08-28T13:13:47.261Z,10.40
2018-08-28T13:16:17.732Z,12.30
2018-08-28T13:18:48.108Z,10.78
2018-08-28T13:21:18.928Z,10.10
2018-08-28T13:23:49.689Z,9.83
2018-08-28T13:26:20.191Z,11.38
2018-08-28T13:28:51.088Z,13.30
2018-08-28T13:31:21.935Z,14.33
2018-08-28T13:33:52.647Z,12.68
2018-08-28T13:36:24.074Z,13.62
2018-08-28T13:38:54.779Z,14.95
2018-08-28T13:41:25.278Z,10.43
2018-08-28T13:43:57.592Z,12.85
2018-08-28T13:46:28.478Z,12.98
2018-08-28T13:48:58.982Z,9.53
2018-08-28T13:51:29.183Z,12.23
2018-08-28T13:53:59.936Z,9.65
2018-08-28T13:56:30.450Z,12.60
2018-08-28T13:59:04.242Z,9.03
2018-08-28T14:01:34.965Z,10.18
2018-08-28T14:04:06.702Z,9.60
2018-08-28T14:06:37.608Z,10.85
2018-08-28T14:09:08.347Z,11.05
2018-08-28T14:11:39.130Z,10.30
2018-08-28T14:14:10.095Z,9.25
2018-08-28T14:16:40.979Z,11.05
2018-08-28T14:19:11.696Z,10.30
2018-08-28T14:21:42.206Z,11.35
2018-08-28T14:24:12.686Z,11.83
2018-08-28T14:26:43.603Z,9.65
2018-08-28T14:29:15.533Z,11.20
2018-08-28T14:31:47.080Z,9.40
2018-08-28T14:34:20.637Z,12.68
2018-08-28T14:36:50.786Z,12.23
2018-08-28T14:39:22.234Z,10.90
2018-08-28T14:41:57.575Z,9.85
2018-08-28T14:44:29.923Z,11.48
2018-08-28T14:47:02.244Z,13.05
2018-08-28T14:49:36.932Z,12.93
2018-08-28T14:52:07.316Z,12.25
2018-08-28T14:54:39.922Z,11.63
2018-08-28T14:57:11.497Z,11.53
2018-08-28T14:59:43.297Z,11.70
2018-08-28T15:02:14.271Z,9.60
2018-08-28T15:04:45.549Z,10.85
2018-08-28T15:07:20.152Z,11.25
2018-08-28T15:09:51.067Z,9.13
2018-08-28T15:12:23.105Z,11.63
2018-08-28T15:14:55.724Z,11.35
2018-08-28T15:17:27.168Z,11.97
2018-08-28T15:20:00.990Z,12.07
2018-08-28T15:22:32.555Z,11.28
2018-08-28T15:25:20.156Z,11.10
2018-08-28T15:27:52.414Z,12.35
2018-08-28T15:30:27.565Z,8.88
2018-08-28T15:32:59.889Z,12.15
2018-08-28T15:35:34.402Z,9.80
2018-08-28T15:38:05.572Z,12.13
2018-08-28T15:40:36.184Z,11.57
2018-08-28T15:43:06.925Z,11.60
2018-08-28T15:45:37.656Z,9.98
2018-08-28T15:48:09.192Z,11.65
2018-08-28T15:50:40.256Z,13.70
2018-08-28T15:53:11.312Z,9.65
2018-08-28T15:55:42.292Z,9.80
2018-08-28T15:58:13.149Z,11.25
2018-08-28T16:00:43.704Z,12.75
2018-08-28T16:03:14.775Z,12.05
2018-08-28T16:05:45.518Z,9.78
2018-08-28T16:08:16.276Z,10.95
2018-08-28T16:10:47.057Z,14.93
2018-08-28T16:13:19.510Z,13.05
2018-08-28T16:15:50.330Z,12.07
2018-08-28T16:18:22.000Z,12.47
2018-08-28T16:20:52.742Z,13.62
2018-08-28T16:23:34.854Z,13.08
2018-08-28T16:26:05.605Z,12.15
2018-08-28T16:28:36.497Z,10.63
2018-08-28T16:31:07.351Z,10.08
2018-08-28T16:33:37.972Z,11.78
2018-08-28T16:36:08.376Z,9.78
2018-08-28T16:38:38.779Z,10.23
2018-08-28T16:41:09.548Z,10.93
2018-08-28T16:43:40.478Z,10.82
2018-08-28T16:46:10.946Z,11.12
2018-08-28T16:48:43.203Z,11.45
2018-08-28T16:51:17.115Z,8.53
2018-08-28T16:53:47.996Z,10.90
2018-08-28T16:56:18.514Z,12.68
2018-08-28T16:58:49.761Z,14.73
2018-08-28T17:01:20.883Z,10.88
2018-08-28T17:03:52.052Z,11.10
2018-08-28T17:06:22.597Z,9.83
2018-08-28T17:08:56.040Z,10.23
2018-08-28T17:11:27.301Z,11.97
2018-08-28T17:13:57.934Z,11.55
2018-08-28T17:16:29.075Z,12.65
2018-08-28T17:18:59.772Z,10.63
2018-08-28T17:21:30.646Z,11.68
2018-08-28T17:24:01.777Z,11.83
2018-08-28T17:26:32.390Z,15.45
2018-08-28T17:29:03.201Z,9.85
2018-08-28T17:31:34.670Z,9.83
2018-08-28T17:34:05.901Z,11.25
2018-08-28T17:36:36.752Z,13.03
2018-08-28T17:39:08.052Z,11.65
2018-08-28T17:41:38.953Z,9.53
2018-08-28T17:44:09.511Z,13.28
2018-08-28T17:46:40.224Z,12.85
2018-08-28T17:49:10.860Z,9.68
2018-08-28T17:51:41.581Z,10.50
2018-08-28T17:54:12.017Z,11.10
2018-08-28T17:56:42.712Z,12.37
2018-08-28T17:59:13.413Z,11.20
2018-08-28T18:01:44.134Z,13.18
2018-08-28T18:04:14.445Z,10.20
2018-08-28T18:06:44.920Z,12.90
2018-08-28T18:09:15.726Z,13.48
2018-08-28T18:11:46.213Z,15.95
2018-08-28T18:14:16.962Z,13.20
2018-08-28T18:16:47.517Z,14.33
2018-08-28T18:19:18.098Z,15.90
2018-08-28T18:21:48.778Z,16.77
2018-08-28T18:24:19.383Z,15.25
2018-08-28T18:26:50.519Z,13.95
2018-08-28T18:29:21.365Z,14.87
2018-08-28T18:31:52.517Z,14.50
2018-08-28T18:34:23.156Z,13.55
2018-08-28T18:36:53.738Z,15.63
2018-08-28T18:39:24.104Z,14.93
2018-08-28T18:41:54.771Z,14.47
2018-08-28T18:44:25.263Z,14.90
2018-08-28T18:46:56.090Z,16.55
2018-08-28T18:49:26.998Z,14.73
2018-08-28T18:51:58.072Z,16.75
2018-08-28T18:54:28.692Z,18.67
2018-08-28T18:56:59.542Z,16.32
2018-08-28T18:59:30.154Z,17.87
2018-08-28T19:02:00.571Z,19.90
2018-08-28T19:04:30.949Z,20.43
2018-08-28T19:07:01.579Z,24.37
2018-08-28T19:09:32.227Z,19.45
2018-08-28T19:12:02.707Z,17.80
2018-08-28T19:14:33.429Z,20.68
2018-08-28T19:17:04.393Z,20.80
2018-08-28T19:19:35.098Z,23.12
2018-08-28T19:22:05.533Z,18.82
2018-08-28T19:24:36.082Z,19.90
2018-08-28T19:27:06.837Z,20.72
2018-08-28T19:29:37.326Z,20.72
2018-08-28T19:32:08.005Z,20.77
2018-08-28T19:34:38.637Z,24.87
2018-08-28T19:37:09.038Z,24.25
2018-08-28T19:39:39.425Z,22.25
2018-08-28T19:42:09.820Z,23.95
2018-08-28T19:44:40.484Z,21.95
2018-08-28T19:47:10.934Z,24.57
2018-08-28T19:49:41.336Z,22.75
2018-08-28T19:52:11.966Z,22.95
2018-08-28T19:54:42.650Z,24.80
2018-08-28T19:57:12.884Z,25.77
2018-08-28T19:59:43.679Z,24.70
2018-08-28T20:02:14.417Z,22.45
2018-08-28T20:04:44.855Z,24.60
2018-08-28T20:07:15.482Z,22.58
2018-08-28T20:09:46.335Z,24.80
2018-08-28T20:12:17.158Z,23.77
2018-08-28T20:14:47.549Z,20.92
2018-08-28T20:17:17.599Z,20.77
2018-08-28T20:19:48.393Z,23.40
2018-08-28T20:22:18.772Z,25.70
2018-08-28T20:38:21.389Z,14.40
2018-08-28T20:41:10.963Z,12.90
2018-08-28T20:43:41.063Z,12.10
2018-08-28T20:46:11.389Z,12.35
2018-08-28T20:48:42.023Z,11.50
2018-08-28T20:51:12.507Z,10.32
2018-08-28T20:53:43.148Z,12.80
2018-08-28T20:56:13.322Z,12.00
2018-08-28T21:25:52.157Z,10.53
2018-08-28T21:28:22.805Z,12.15
2018-08-28T21:30:53.122Z,13.35
2018-08-28T21:33:23.665Z,11.03
2018-08-28T21:35:54.009Z,9.23
2018-08-28T21:38:24.991Z,11.00
2018-08-28T21:40:55.321Z,9.93
2018-08-28T21:43:25.345Z,13.15
2018-08-28T21:45:55.934Z,13.55
2018-08-28T21:48:26.393Z,11.20
2018-08-28T21:50:56.829Z,11.28
2018-08-28T21:53:27.281Z,13.72
